createdAt,value
2018-04-20T00:01:52.066Z,13.40
2018-04-20T00:04:18.337Z,13.40
2018-04-20T00:06:44.553Z,13.40
2018-04-20T00:09:10.771Z,13.30
2018-04-20T00:11:37.394Z,13.20
2018-04-20T00:14:03.599Z,13.30
2018-04-20T00:16:30.853Z,13.30
2018-04-20T00:18:57.799Z,13.20
2018-04-20T00:21:24.003Z,13.20
2018-04-20T00:23:50.261Z,13.20
2018-04-20T00:26:17.324Z,13.20
2018-04-20T00:28:43.555Z,13.20
2018-04-20T00:31:09.775Z,13.00
2018-04-20T00:33:36.020Z,13.00
2018-04-20T00:36:02.276Z,12.90
2018-04-20T00:38:28.516Z,13.00
2018-04-20T00:40:54.776Z,12.90
2018-04-20T00:43:21.896Z,13.00
2018-04-20T00:45:48.173Z,12.80
2018-04-20T00:48:14.374Z,12.90
2018-04-20T00:50:40.632Z,12.90
2018-04-20T00:53:06.845Z,12.90
2018-04-20T00:55:33.070Z,12.80
2018-04-20T00:57:59.332Z,12.80
2018-04-20T01:00:25.599Z,12.90
2018-04-20T01:02:51.844Z,12.90
2018-04-20T01:05:18.112Z,12.80
2018-04-20T01:07:44.684Z,12.70
2018-04-20T01:10:10.924Z,12.80
2018-04-20T01:12:37.152Z,12.60
2018-04-20T01:15:03.390Z,12.60
2018-04-20T01:17:29.618Z,12.50
2018-04-20T01:19:55.853Z,12.50
2018-04-20T01:22:22.057Z,12.60
2018-04-20T01:24:48.312Z,12.50
2018-04-20T01:27:14.544Z,12.60
2018-04-20T01:29:40.767Z,12.50
2018-04-20T01:32:06.985Z,12.50
2018-04-20T01:34:33.229Z,12.50
2018-04-20T01:36:59.451Z,12.30
2018-04-20T01:39:25.711Z,12.40
2018-04-20T01:41:52.325Z,12.30
2018-04-20T01:44:18.548Z,12.30
2018-04-20T01:46:44.766Z,12.30
2018-04-20T01:49:11.001Z,12.20
2018-04-20T01:51:37.215Z,12.20
2018-04-20T01:54:03.434Z,12.10
2018-04-20T01:56:29.704Z,12.10
2018-04-20T01:58:56.299Z,12.10
2018-04-20T02:01:22.529Z,12.10
2018-04-20T02:03:48.764Z,12.10
2018-04-20T02:06:14.971Z,12.10
2018-04-20T02:08:41.182Z,12.10
2018-04-20T02:11:07.396Z,12.00
2018-04-20T02:13:33.638Z,12.00
2018-04-20T02:15:59.866Z,12.00
2018-04-20T02:18:26.091Z,12.00
2018-04-20T02:20:52.336Z,12.00
2018-04-20T02:23:18.571Z,11.90
2018-04-20T02:25:44.786Z,11.90
2018-04-20T02:28:11.003Z,11.90
2018-04-20T02:33:10.180Z,12.00
2018-04-20T02:35:36.379Z,12.10
2018-04-20T02:38:02.639Z,12.10
2018-04-20T02:40:28.878Z,12.10
2018-04-20T02:42:55.107Z,12.10
2018-04-20T02:45:21.717Z,12.20
2018-04-20T02:47:48.005Z,12.10
2018-04-20T02:50:14.238Z,12.10
2018-04-20T02:52:40.496Z,12.20
2018-04-20T02:55:06.759Z,12.10
2018-04-20T02:57:33.372Z,12.10
2018-04-20T02:59:59.603Z,12.10
2018-04-20T03:02:25.865Z,12.10
2018-04-20T03:04:52.457Z,12.20
2018-04-20T03:07:18.698Z,12.20
2018-04-20T03:09:44.972Z,12.20
2018-04-20T03:12:11.188Z,12.20
2018-04-20T03:14:37.763Z,12.10
2018-04-20T03:17:04.004Z,12.10
2018-04-20T03:19:30.253Z,12.00
2018-04-20T03:21:56.472Z,12.10
2018-04-20T03:24:23.934Z,12.10
2018-04-20T03:26:50.183Z,12.10
2018-04-20T03:29:16.831Z,11.90
2018-04-20T03:31:43.438Z,11.90
2018-04-20T03:34:09.637Z,11.90
2018-04-20T03:36:35.857Z,11.90
2018-04-20T03:39:03.159Z,11.80
2018-04-20T03:41:29.365Z,11.80
2018-04-20T03:43:55.574Z,11.80
2018-04-20T03:46:21.872Z,11.80
2018-04-20T03:48:48.078Z,11.90
2018-04-20T03:51:15.638Z,11.80
2018-04-20T03:53:42.235Z,11.80
2018-04-20T03:56:08.444Z,11.80
2018-04-20T03:58:34.680Z,11.80
2018-04-20T04:01:00.933Z,11.80
2018-04-20T04:03:27.156Z,11.90
2018-04-20T04:05:53.401Z,11.90
2018-04-20T04:08:19.632Z,11.80
2018-04-20T04:10:45.919Z,11.80
2018-04-20T04:13:12.153Z,11.70
2018-04-20T04:15:38.383Z,11.70
2018-04-20T04:18:16.741Z,11.60
2018-04-20T04:20:47.077Z,11.40
2018-04-20T04:23:25.725Z,11.40
2018-04-20T04:26:04.080Z,11.40
2018-04-20T04:28:30.395Z,11.30
2018-04-20T04:30:56.633Z,11.30
2018-04-20T04:33:22.864Z,11.20
2018-04-20T04:35:49.083Z,11.10
2018-04-20T04:38:15.302Z,11.10
2018-04-20T04:40:41.549Z,11.20
2018-04-20T04:43:07.785Z,11.30
2018-04-20T04:45:34.039Z,11.30
2018-04-20T04:48:00.369Z,11.20
2018-04-20T04:50:26.555Z,11.20
2018-04-20T04:52:52.771Z,11.20
2018-04-20T04:55:18.984Z,11.20
2018-04-20T04:57:45.240Z,11.30
2018-04-20T05:00:12.437Z,11.30
2018-04-20T05:02:38.740Z,11.30
2018-04-20T05:05:05.021Z,11.20
2018-04-20T05:07:31.329Z,11.30
2018-04-20T05:09:57.539Z,11.40
2018-04-20T05:12:23.738Z,11.40
2018-04-20T05:14:50.002Z,11.30
2018-04-20T05:17:16.590Z,11.60
2018-04-20T05:19:42.849Z,11.60
2018-04-20T05:22:09.512Z,11.60
2018-04-20T05:24:35.784Z,11.70
2018-04-20T05:27:02.079Z,11.70
2018-04-20T05:29:28.345Z,11.70
2018-04-20T05:31:54.582Z,11.70
2018-04-20T05:34:20.823Z,11.80
2018-04-20T05:36:47.053Z,11.90
2018-04-20T05:39:13.297Z,12.00
2018-04-20T05:41:39.559Z,12.10
2018-04-20T05:44:05.834Z,12.20
2018-04-20T05:46:32.090Z,12.30
2018-04-20T05:48:58.778Z,12.50
2018-04-20T05:51:25.095Z,12.50
2018-04-20T05:53:51.332Z,12.60
2018-04-20T05:56:17.613Z,12.70
2018-04-20T05:58:44.337Z,12.80
2018-04-20T06:01:10.696Z,12.90
2018-04-20T06:03:37.296Z,13.00
2018-04-20T06:06:04.277Z,13.00
2018-04-20T06:08:30.556Z,13.10
2018-04-20T06:10:56.828Z,13.20
2018-04-20T06:13:23.497Z,13.50
2018-04-20T06:15:49.771Z,13.50
2018-04-20T06:18:16.014Z,13.60
2018-04-20T06:20:43.504Z,13.80
2018-04-20T06:23:10.147Z,14.00
2018-04-20T06:25:36.409Z,14.00
2018-04-20T06:28:02.722Z,14.10
2018-04-20T06:30:29.011Z,14.30
2018-04-20T06:32:55.306Z,14.30
2018-04-20T06:35:21.554Z,14.50
2018-04-20T06:37:48.878Z,14.70
2018-04-20T06:40:15.141Z,14.70
2018-04-20T06:42:41.389Z,14.80
2018-04-20T06:45:07.615Z,14.90
2018-04-20T06:47:33.865Z,15.10
2018-04-20T06:50:00.096Z,15.20
2018-04-20T06:52:26.325Z,15.30
2018-04-20T06:54:52.596Z,15.40
2018-04-20T06:57:18.815Z,15.50
2018-04-20T06:59:45.751Z,15.60
2018-04-20T07:02:11.983Z,15.70
2018-04-20T07:04:38.200Z,15.80
2018-04-20T07:07:04.451Z,15.80
2018-04-20T07:09:30.700Z,15.80
2018-04-20T07:11:56.979Z,15.90
2018-04-20T07:14:23.217Z,16.00
2018-04-20T07:16:49.485Z,16.10
2018-04-20T07:19:16.095Z,16.30
2018-04-20T07:21:42.336Z,16.30
2018-04-20T07:24:08.997Z,16.50
2018-04-20T07:26:35.283Z,16.50
2018-04-20T07:29:01.520Z,16.60
2018-04-20T07:31:27.773Z,16.70
2018-04-20T07:33:54.018Z,16.80
2018-04-20T07:36:20.232Z,16.90
2018-04-20T07:38:46.503Z,17.00
2018-04-20T07:41:13.428Z,17.00
2018-04-20T07:43:39.698Z,17.20
2018-04-20T07:46:06.029Z,17.30
2018-04-20T07:48:32.263Z,17.40
2018-04-20T07:50:58.486Z,17.50
2018-04-20T07:53:24.736Z,17.50
2018-04-20T07:55:51.598Z,17.70
2018-04-20T07:58:18.183Z,17.70
2018-04-20T08:00:44.419Z,17.80
2018-04-20T08:03:11.529Z,17.90
2018-04-20T08:05:37.763Z,17.90
2018-04-20T08:08:04.157Z,17.90
2018-04-20T08:10:30.816Z,18.00
2018-04-20T08:12:57.048Z,18.00
2018-04-20T08:15:23.320Z,18.20
2018-04-20T08:17:49.534Z,18.20
2018-04-20T08:20:15.834Z,18.10
2018-04-20T08:22:42.103Z,18.20
2018-04-20T08:25:08.368Z,18.30
2018-04-20T08:27:34.999Z,18.70
2018-04-20T08:30:01.216Z,18.70
2018-04-20T08:32:27.442Z,18.60
2018-04-20T08:34:53.687Z,18.70
2018-04-20T08:37:20.307Z,19.10
2018-04-20T08:39:46.538Z,19.00
2018-04-20T08:42:12.796Z,19.20
2018-04-20T08:44:39.037Z,19.30
2018-04-20T08:47:05.286Z,19.40
2018-04-20T08:49:31.573Z,19.60
2018-04-20T08:51:57.798Z,19.70
2018-04-20T08:54:24.029Z,19.80
2018-04-20T08:56:50.371Z,19.80
2018-04-20T08:59:16.977Z,20.10
2018-04-20T09:01:43.219Z,20.10
2018-04-20T09:04:09.455Z,20.20
2018-04-20T09:06:36.024Z,20.50
2018-04-20T09:09:02.321Z,20.50
2018-04-20T09:11:28.948Z,20.30
2018-04-20T09:13:55.234Z,20.40
2018-04-20T09:16:21.471Z,20.50
2018-04-20T09:18:47.744Z,20.50
2018-04-20T09:21:14.010Z,20.40
2018-04-20T09:23:40.249Z,20.50
2018-04-20T09:26:06.521Z,20.70
2018-04-20T09:28:32.738Z,20.90
2018-04-20T09:30:58.968Z,21.10
2018-04-20T09:33:25.229Z,21.30
2018-04-20T09:35:51.450Z,21.50
2018-04-20T09:38:18.040Z,21.80
2018-04-20T09:40:44.303Z,21.80
2018-04-20T09:43:10.912Z,22.00
2018-04-20T09:45:37.155Z,22.00
2018-04-20T09:48:03.400Z,22.00
2018-04-20T09:50:30.009Z,22.40
2018-04-20T09:52:56.265Z,22.40
2018-04-20T09:55:22.870Z,22.30
2018-04-20T09:57:49.099Z,22.30
2018-04-20T10:00:17.288Z,22.50
2018-04-20T10:02:45.392Z,22.80
2018-04-20T10:05:11.623Z,23.00
2018-04-20T10:07:38.238Z,23.60
2018-04-20T10:10:05.116Z,23.60
2018-04-20T10:12:31.333Z,23.80
2018-04-20T10:14:57.571Z,23.90
2018-04-20T10:17:23.846Z,24.10
2018-04-20T10:19:50.051Z,24.40
2018-04-20T10:22:16.269Z,24.50
2018-04-20T10:24:42.480Z,24.60
2018-04-20T10:27:08.730Z,24.70
2018-04-20T10:29:34.944Z,24.90
2018-04-20T10:32:01.198Z,24.90
2018-04-20T10:34:27.445Z,25.20
2018-04-20T10:36:53.667Z,25.60
2018-04-20T10:39:19.869Z,25.80
2018-04-20T10:41:46.086Z,26.10
2018-04-20T10:44:12.331Z,26.60
2018-04-20T10:46:38.562Z,27.30
2018-04-20T10:49:04.815Z,28.20
2018-04-20T10:51:31.055Z,29.30
2018-04-20T10:53:57.267Z,30.60
2018-04-20T10:56:23.503Z,31.90
2018-04-20T10:58:49.732Z,33.20
2018-04-20T11:01:15.983Z,34.40
2018-04-20T11:03:42.600Z,35.20
2018-04-20T11:06:09.760Z,35.20
2018-04-20T11:08:35.978Z,35.90
2018-04-20T11:11:02.208Z,36.50
2018-04-20T11:13:28.457Z,37.10
2018-04-20T11:15:54.721Z,37.30
2018-04-20T11:18:20.987Z,37.20
2018-04-20T11:20:47.231Z,37.80
2018-04-20T11:23:13.837Z,39.60
2018-04-20T11:25:40.171Z,39.60
2018-04-20T11:28:06.400Z,40.60
2018-04-20T11:30:32.667Z,41.60
2018-04-20T11:32:58.932Z,42.80
2018-04-20T11:35:25.163Z,43.50
2018-04-20T11:37:51.389Z,44.70
2018-04-20T11:40:17.596Z,46.00
2018-04-20T11:42:43.828Z,46.80
2018-04-20T11:45:10.032Z,47.60
2018-04-20T11:47:36.616Z,47.60
2018-04-20T11:50:09.842Z,47.60
2018-04-20T11:52:36.057Z,49.10
2018-04-20T11:55:02.318Z,50.20
2018-04-20T11:57:28.560Z,51.40
2018-04-20T11:59:54.795Z,52.50
2018-04-20T12:02:21.017Z,52.60
2018-04-20T12:04:47.294Z,52.80
2018-04-20T12:07:13.519Z,53.50
2018-04-20T12:09:39.724Z,54.00
2018-04-20T12:12:05.976Z,54.40
2018-04-20T12:14:32.219Z,53.20
2018-04-20T12:16:58.444Z,53.80
2018-04-20T12:19:24.694Z,54.50
2018-04-20T12:21:51.311Z,56.60
2018-04-20T12:24:17.541Z,56.60
2018-04-20T12:26:43.816Z,57.20
2018-04-20T12:29:10.463Z,57.80
2018-04-20T12:31:36.783Z,57.80
2018-04-20T12:34:03.041Z,57.30
2018-04-20T12:36:30.517Z,57.70
2018-04-20T12:38:56.802Z,57.80
2018-04-20T12:41:23.097Z,56.90
2018-04-20T12:43:50.692Z,56.30
2018-04-20T12:46:17.737Z,55.60
2018-04-20T12:48:44.047Z,56.30
2018-04-20T12:51:10.286Z,56.90
2018-04-20T12:53:36.900Z,56.50
2018-04-20T12:56:03.202Z,56.50
2018-04-20T12:58:29.485Z,56.50
2018-04-20T13:00:55.716Z,57.20
2018-04-20T13:03:21.969Z,56.70
2018-04-20T13:05:48.234Z,57.00
2018-04-20T13:08:14.457Z,57.20
2018-04-20T13:10:40.750Z,57.50
2018-04-20T13:13:06.969Z,56.90
2018-04-20T13:15:33.235Z,56.40
2018-04-20T13:17:59.540Z,55.90
2018-04-20T13:20:25.756Z,56.50
2018-04-20T13:22:51.953Z,55.90
2018-04-20T13:25:18.261Z,56.10
2018-04-20T13:27:44.509Z,56.60
2018-04-20T13:30:10.754Z,57.40
2018-04-20T13:32:37.331Z,57.90
2018-04-20T13:35:03.543Z,57.90
2018-04-20T13:37:29.808Z,57.90
2018-04-20T13:39:56.020Z,57.80
2018-04-20T13:42:22.235Z,58.40
2018-04-20T13:44:48.473Z,59.00
2018-04-20T13:47:14.696Z,59.30
2018-04-20T13:49:40.902Z,59.60
2018-04-20T13:52:07.199Z,60.00
2018-04-20T13:54:33.481Z,60.10
2018-04-20T13:56:59.692Z,59.40
2018-04-20T13:59:25.967Z,57.70
2018-04-20T14:01:52.202Z,58.60
2018-04-20T14:04:18.471Z,58.80
2018-04-20T14:06:45.717Z,58.90
2018-04-20T14:09:11.937Z,59.00
2018-04-20T14:11:38.221Z,59.30
2018-04-20T14:14:04.419Z,58.70
2018-04-20T14:16:30.658Z,59.00
2018-04-20T14:18:56.901Z,59.30
2018-04-20T14:21:23.130Z,58.10
2018-04-20T14:23:49.348Z,58.10
2018-04-20T14:26:16.274Z,58.20
2018-04-20T14:28:42.648Z,58.30
2018-04-20T14:31:08.867Z,58.50
2018-04-20T14:33:35.064Z,57.40
2018-04-20T14:36:01.325Z,55.80
2018-04-20T14:38:27.546Z,56.30
2018-04-20T14:40:53.765Z,56.30
2018-04-20T14:43:20.035Z,56.30
2018-04-20T14:45:46.265Z,56.90
2018-04-20T14:48:12.521Z,57.20
2018-04-20T14:50:38.775Z,57.20
2018-04-20T14:53:05.008Z,57.20
2018-04-20T14:55:31.281Z,54.50
2018-04-20T14:57:57.598Z,52.00
2018-04-20T15:00:23.877Z,51.00
2018-04-20T15:02:50.124Z,52.10
2018-04-20T15:05:16.839Z,51.90
2018-04-20T15:07:43.489Z,49.80
2018-04-20T15:10:10.735Z,49.40
2018-04-20T15:12:37.040Z,49.40
2018-04-20T15:15:03.338Z,50.60
2018-04-20T15:17:29.569Z,51.40
2018-04-20T15:19:55.851Z,52.50
2018-04-20T15:22:22.061Z,53.10
2018-04-20T15:24:48.737Z,51.90
2018-04-20T15:27:15.001Z,51.90
2018-04-20T15:29:41.224Z,51.70
2018-04-20T15:32:07.453Z,51.20
2018-04-20T15:34:33.734Z,50.60
2018-04-20T15:36:59.983Z,50.10
2018-04-20T15:39:26.201Z,49.70
2018-04-20T15:41:52.444Z,49.40
2018-04-20T15:44:18.705Z,48.70
2018-04-20T15:46:44.979Z,45.90
2018-04-20T15:49:11.291Z,45.00
2018-04-20T15:51:37.521Z,44.60
2018-04-20T15:54:03.760Z,45.00
2018-04-20T15:56:30.009Z,44.50
2018-04-20T15:58:56.250Z,43.90
2018-04-20T16:01:22.481Z,43.60
2018-04-20T16:03:48.751Z,42.80
2018-04-20T16:06:15.349Z,41.10
2018-04-20T16:08:41.548Z,41.10
2018-04-20T16:11:07.789Z,39.50
2018-04-20T16:13:34.019Z,38.20
2018-04-20T16:16:00.247Z,37.80
2018-04-20T16:18:26.490Z,37.60
2018-04-20T16:20:52.815Z,38.30
2018-04-20T16:23:19.060Z,39.30
2018-04-20T16:25:45.256Z,39.90
2018-04-20T16:28:11.508Z,40.10
2018-04-20T16:30:37.798Z,39.90
2018-04-20T16:33:04.073Z,39.30
2018-04-20T16:35:30.371Z,38.20
2018-04-20T16:37:56.613Z,36.80
2018-04-20T16:40:22.830Z,35.70
2018-04-20T16:42:49.097Z,34.70
2018-04-20T16:45:15.350Z,33.70
2018-04-20T16:47:41.567Z,32.80
2018-04-20T16:50:07.818Z,32.10
2018-04-20T16:52:34.055Z,31.60
2018-04-20T16:55:00.274Z,31.00
2018-04-20T16:57:26.543Z,30.50
2018-04-20T16:59:52.769Z,30.00
2018-04-20T17:02:19.027Z,29.60
2018-04-20T17:04:45.270Z,29.40
2018-04-20T17:07:11.884Z,28.90
2018-04-20T17:09:38.127Z,28.90
2018-04-20T17:12:04.407Z,28.60
2018-04-20T17:14:30.644Z,28.40
2018-04-20T17:16:56.879Z,28.20
2018-04-20T17:19:23.113Z,28.00
2018-04-20T17:21:49.368Z,27.90
2018-04-20T17:24:17.012Z,27.60
2018-04-20T17:26:43.418Z,27.50
2018-04-20T17:29:09.676Z,27.20
2018-04-20T17:31:35.910Z,27.10
2018-04-20T17:34:02.166Z,26.90
2018-04-20T17:36:28.484Z,26.70
2018-04-20T17:38:54.728Z,26.60
2018-04-20T17:41:21.537Z,26.20
2018-04-20T17:43:47.946Z,26.20
2018-04-20T17:46:14.161Z,26.00
2018-04-20T17:48:40.387Z,25.90
2018-04-20T17:51:08.227Z,25.70
2018-04-20T17:53:34.472Z,25.60
2018-04-20T17:56:00.713Z,25.40
2018-04-20T17:58:26.965Z,25.30
2018-04-20T18:00:53.222Z,25.10
2018-04-20T18:03:19.856Z,24.70
2018-04-20T18:05:46.054Z,24.70
2018-04-20T18:08:12.311Z,24.50
2018-04-20T18:10:38.532Z,24.40
2018-04-20T18:13:04.735Z,24.20
2018-04-20T18:15:31.021Z,24.00
2018-04-20T18:17:57.658Z,23.70
2018-04-20T18:20:24.273Z,23.50
2018-04-20T18:22:50.529Z,23.50
2018-04-20T18:25:16.764Z,23.30
2018-04-20T18:27:43.000Z,23.10
2018-04-20T18:30:09.225Z,23.00
2018-04-20T18:32:35.554Z,22.90
2018-04-20T18:35:01.821Z,22.70
2018-04-20T18:37:28.084Z,22.60
2018-04-20T18:39:54.698Z,22.30
2018-04-20T18:42:20.942Z,22.40
2018-04-20T18:44:47.227Z,22.20
2018-04-20T18:47:13.476Z,22.10
2018-04-20T18:49:39.781Z,22.00
2018-04-20T18:52:06.020Z,21.80
2018-04-20T18:54:32.282Z,21.70
2018-04-20T18:56:58.533Z,21.60
2018-04-20T18:59:25.176Z,21.40
2018-04-20T19:01:51.799Z,21.30
2018-04-20T19:04:18.355Z,21.20
2018-04-20T19:06:44.624Z,21.20
2018-04-20T19:09:10.871Z,21.00
2018-04-20T19:11:37.112Z,20.90
2018-04-20T19:14:03.411Z,20.80
2018-04-20T19:16:29.661Z,20.70
2018-04-20T19:18:55.923Z,20.60
2018-04-20T19:21:22.145Z,20.60
2018-04-20T19:23:48.446Z,20.50
2018-04-20T19:26:14.728Z,20.40
2018-04-20T19:28:40.924Z,20.30
2018-04-20T19:31:07.540Z,20.10
2018-04-20T19:33:33.755Z,20.20
2018-04-20T19:36:00.028Z,20.10
2018-04-20T19:38:26.691Z,20.00
2018-04-20T19:40:52.914Z,20.00
2018-04-20T19:43:19.162Z,19.90
2018-04-20T19:45:45.424Z,19.80
2018-04-20T19:48:11.643Z,19.70
2018-04-20T19:50:37.930Z,19.60
2018-04-20T19:53:04.185Z,19.50
2018-04-20T19:55:30.454Z,19.40
2018-04-20T19:57:56.677Z,19.40
2018-04-20T20:00:23.332Z,19.30
2018-04-20T20:02:49.581Z,19.30
2018-04-20T20:05:15.857Z,19.10
2018-04-20T20:07:42.144Z,18.90
2018-04-20T20:10:08.358Z,19.00
2018-04-20T20:12:34.607Z,19.00
2018-04-20T20:15:01.092Z,19.00
2018-04-20T20:17:27.673Z,18.80
2018-04-20T20:19:53.917Z,18.80
2018-04-20T20:22:20.188Z,18.70
2018-04-20T20:24:46.798Z,18.50
2018-04-20T20:27:13.047Z,18.50
2018-04-20T20:29:39.284Z,18.40
2018-04-20T20:32:05.902Z,18.40
2018-04-20T20:34:32.142Z,18.40
2018-04-20T20:36:58.383Z,18.30
2018-04-20T20:39:25.779Z,18.30
2018-04-20T20:41:51.996Z,18.30
2018-04-20T20:44:18.918Z,18.20
2018-04-20T20:46:45.161Z,18.10
2018-04-20T20:49:11.459Z,18.20
2018-04-20T20:51:37.688Z,18.00
2018-04-20T20:54:03.959Z,17.90
2018-04-20T20:56:30.222Z,17.80
2018-04-20T20:58:56.472Z,17.80
2018-04-20T21:01:23.130Z,17.70
2018-04-20T21:03:49.389Z,17.70
2018-04-20T21:06:16.556Z,17.70
2018-04-20T21:08:42.814Z,17.70
2018-04-20T21:11:15.555Z,17.60
2018-04-20T21:13:41.791Z,17.50
2018-04-20T21:16:08.022Z,17.30
2018-04-20T21:18:34.455Z,17.30
2018-04-20T21:21:00.733Z,17.40
2018-04-20T21:23:28.237Z,17.30
2018-04-20T21:25:54.483Z,17.30
2018-04-20T21:28:20.715Z,17.30
2018-04-20T21:30:46.968Z,17.20
2018-04-20T21:33:15.348Z,17.10
2018-04-20T21:35:39.437Z,17.10
2018-04-20T21:38:05.682Z,17.10
2018-04-20T21:40:32.064Z,17.00
2018-04-20T21:42:58.363Z,17.00
2018-04-20T21:45:24.608Z,16.90
2018-04-20T21:47:50.888Z,16.90
2018-04-20T21:50:17.105Z,16.90
2018-04-20T21:52:43.702Z,16.70
2018-04-20T21:55:09.987Z,16.70
2018-04-20T21:57:36.550Z,16.70
2018-04-20T22:00:02.842Z,16.70
2018-04-20T22:02:29.102Z,16.70
2018-04-20T22:04:55.322Z,16.60
2018-04-20T22:07:22.121Z,16.60
2018-04-20T22:09:48.428Z,16.60
2018-04-20T22:12:14.679Z,16.60
2018-04-20T22:14:40.880Z,16.60
2018-04-20T22:17:07.694Z,16.50
2018-04-20T22:19:33.921Z,16.40
2018-04-20T22:22:00.977Z,16.40
2018-04-20T22:24:27.237Z,16.30
2018-04-20T22:26:53.479Z,16.20
2018-04-20T22:29:19.696Z,16.00
2018-04-20T22:31:45.944Z,16.00
2018-04-20T22:34:12.159Z,16.00
2018-04-20T22:36:38.372Z,16.00
2018-04-20T22:39:04.645Z,16.00
2018-04-20T22:41:30.904Z,15.90
2018-04-20T22:43:57.178Z,15.70
2018-04-20T22:46:23.760Z,15.80
2018-04-20T22:48:49.959Z,15.80
2018-04-20T22:51:16.221Z,15.70
2018-04-20T22:53:43.242Z,15.70
2018-04-20T22:56:09.507Z,15.70
2018-04-20T22:58:35.729Z,15.70
2018-04-20T23:01:01.978Z,15.60
2018-04-20T23:03:28.220Z,15.70
2018-04-20T23:05:54.449Z,15.60
2018-04-20T23:08:20.725Z,15.50
2018-04-20T23:10:46.999Z,15.50
2018-04-20T23:13:13.233Z,15.40
2018-04-20T23:15:39.493Z,15.40
2018-04-20T23:18:05.712Z,15.40
2018-04-20T23:20:31.973Z,15.30
2018-04-20T23:22:58.209Z,15.30
2018-04-20T23:25:24.438Z,15.30
2018-04-20T23:27:50.672Z,15.30
2018-04-20T23:30:16.891Z,15.20
2018-04-20T23:32:43.144Z,15.20
2018-04-20T23:35:09.412Z,15.10
2018-04-20T23:37:36.020Z,15.00
2018-04-20T23:40:02.315Z,15.00
2018-04-20T23:42:28.548Z,14.90
2018-04-20T23:44:54.802Z,14.90
2018-04-20T23:47:21.037Z,14.80
2018-04-20T23:49:47.264Z,14.60
2018-04-20T23:52:13.508Z,14.40
2018-04-20T23:54:39.753Z,14.50
2018-04-20T23:57:06.014Z,14.60
2018-04-20T23:59:32.247Z,14.60
